Página principal
METAR-TAF:

METAR-TAF

Aeroportos :

Novokuznetsk, Rússia

latitude: 53-44N, longitude: 087-11E, altura: 308 m

Observação actual do tempo

O boletim foi feito há 37 minutos, às 03:30 UTC
Vento 4 kt de es-sudeste, variando entre este e su-sudeste
Temperatura 27°C
Humidade 58%
Pressão 1008 hPa
Visibilidade 10 km ou mais
sem nuvens abaixo de 1500 metros e sem cumulonimbus

METAR: UNWW 230330Z 12002MPS 080V160 CAVOK 27/18 Q1008 R19/09//55 NOSIG RMK QFE729

Hora: 11:07 (04:07 UTC)

Previsão

O boletim foi feito há 2 horas e 7 minutos, às 02:00 UTC
Previsão válida de 23 às 03 UTC a 24 às 03 UTC
Vento 6 kt de sudeste com rajadas de 16 kt
Visibilidade: 8000 m
Nuvens fragmentadasa uma altura de 4000 ft, Cumulonimbus.
Temporariamente
de 23 às 03 UTC a 23 às 21 UTC
trovoada, chuva fraca,

TAF: UNWW 230200Z 2303/2403 13003G08MPS 8000 BKN040CB TX32/2309Z TN16/2322Z TEMPO 2303/2321 -TSRA

Observações e previsões do tempo de mais de 4000 aeroportos (mensagens METAR e TAF).

As estações disponíveis são os pontos amarelos e vermelhos sobre o mapa.

Mova o rato sobre o mapa para ver o nome da estação.

Depois clique no ponto para visualizar as observações e previsões meteorológicas.

Para alterar o mapa : clique nos botões verdes com uma cruz preta para aumentar o zoom; no botão verde com uma pitada de zoom; ou nas setas verdes para mapas adjacentes.


METAR-TAF: